createdAt,value
2019-01-30T00:01:34.911Z,0.90
2019-01-30T00:04:25.317Z,0.90
2019-01-30T00:07:15.337Z,0.90
2019-01-30T00:10:07.249Z,0.90
2019-01-30T00:12:57.537Z,0.90
2019-01-30T00:15:56.231Z,0.90
2019-01-30T00:18:40.156Z,0.80
2019-01-30T00:21:30.261Z,0.80
2019-01-30T00:24:20.638Z,0.80
2019-01-30T00:27:10.763Z,0.80
2019-01-30T00:30:04.016Z,0.80
2019-01-30T00:32:53.837Z,0.80
2019-01-30T00:35:43.762Z,0.80
2019-01-30T00:38:34.108Z,0.80
2019-01-30T00:41:25.453Z,0.80
2019-01-30T00:44:15.489Z,0.70
2019-01-30T00:47:15.453Z,0.70
2019-01-30T00:49:57.589Z,0.70
2019-01-30T00:52:47.609Z,0.80
2019-01-30T00:55:37.826Z,0.80
2019-01-30T00:58:27.858Z,0.80
2019-01-30T01:01:17.950Z,0.80
2019-01-30T01:04:08.573Z,0.70
2019-01-30T01:06:59.341Z,0.80
2019-01-30T01:09:49.493Z,0.80
2019-01-30T01:12:39.585Z,0.80
2019-01-30T01:15:29.825Z,0.70
2019-01-30T01:18:21.586Z,0.70
2019-01-30T01:21:12.374Z,0.70
2019-01-30T01:24:02.517Z,0.70
2019-01-30T01:26:52.919Z,0.70
2019-01-30T01:29:43.130Z,0.70
2019-01-30T01:32:33.142Z,0.70
2019-01-30T01:35:23.338Z,0.60
2019-01-30T01:38:13.318Z,0.60
2019-01-30T01:41:03.678Z,0.60
2019-01-30T01:43:53.697Z,0.60
2019-01-30T01:46:44.042Z,0.60
2019-01-30T01:49:34.250Z,0.60
2019-01-30T01:52:24.630Z,0.60
2019-01-30T01:55:15.254Z,0.60
2019-01-30T01:58:06.117Z,0.60
2019-01-30T02:00:56.426Z,0.60
2019-01-30T02:03:46.413Z,0.60
2019-01-30T02:06:36.303Z,0.60
2019-01-30T02:09:27.253Z,0.60
2019-01-30T02:12:17.338Z,0.60
2019-01-30T02:15:10.225Z,0.60
2019-01-30T02:18:00.542Z,0.60
2019-01-30T02:20:50.901Z,0.60
2019-01-30T02:23:40.970Z,0.60
2019-01-30T02:26:31.414Z,0.60
2019-01-30T02:29:21.837Z,0.60
2019-01-30T02:32:12.127Z,0.60
2019-01-30T02:35:02.011Z,0.60
2019-01-30T02:37:52.754Z,0.50
2019-01-30T02:40:42.979Z,0.60
2019-01-30T02:43:33.339Z,0.50
2019-01-30T02:46:23.596Z,0.60
2019-01-30T02:49:13.882Z,0.60
2019-01-30T02:52:04.266Z,0.60
2019-01-30T02:54:54.518Z,0.60
2019-01-30T02:57:45.542Z,0.70
2019-01-30T03:00:37.726Z,0.70
2019-01-30T03:03:28.646Z,0.70
2019-01-30T03:06:18.965Z,0.70
2019-01-30T03:09:09.415Z,0.70
2019-01-30T03:11:59.725Z,0.60
2019-01-30T03:14:50.097Z,0.60
2019-01-30T03:17:40.561Z,0.60
2019-01-30T03:20:30.914Z,0.60
2019-01-30T03:23:21.306Z,0.60
2019-01-30T03:26:11.811Z,0.60
2019-01-30T03:29:02.427Z,0.60
2019-01-30T03:31:52.652Z,0.60
2019-01-30T03:34:42.837Z,0.60
2019-01-30T03:37:32.845Z,0.60
2019-01-30T03:40:23.258Z,0.60
2019-01-30T03:43:13.514Z,0.60
2019-01-30T03:46:03.578Z,0.50
2019-01-30T03:48:54.427Z,0.60
2019-01-30T03:51:44.961Z,0.60
2019-01-30T03:54:34.893Z,0.60
2019-01-30T03:57:25.106Z,0.60
2019-01-30T04:00:20.834Z,0.60
2019-01-30T04:03:11.849Z,0.60
2019-01-30T04:06:03.922Z,0.60
2019-01-30T04:08:54.207Z,0.60
2019-01-30T04:11:44.262Z,0.60
2019-01-30T04:14:34.614Z,0.60
2019-01-30T04:17:25.118Z,0.60
2019-01-30T04:20:17.701Z,0.60
2019-01-30T04:23:08.158Z,0.60
2019-01-30T04:25:58.214Z,0.60
2019-01-30T04:28:48.302Z,0.60
2019-01-30T04:31:38.693Z,0.60
2019-01-30T04:34:28.951Z,0.60
2019-01-30T04:37:18.922Z,0.60
2019-01-30T04:40:11.997Z,0.60
2019-01-30T04:43:02.357Z,0.60
2019-01-30T04:45:52.275Z,0.60
2019-01-30T04:48:42.590Z,0.60
2019-01-30T04:51:33.319Z,0.60
2019-01-30T04:54:23.859Z,0.70
2019-01-30T04:57:14.858Z,0.60
2019-01-30T05:00:06.230Z,0.70
2019-01-30T05:02:56.779Z,0.60
2019-01-30T05:05:47.290Z,0.70
2019-01-30T05:08:37.495Z,0.70
2019-01-30T05:11:27.946Z,0.70
2019-01-30T05:14:17.991Z,0.70
2019-01-30T05:17:09.394Z,0.70
2019-01-30T05:19:59.632Z,0.70
2019-01-30T05:22:50.006Z,0.70
2019-01-30T05:25:40.798Z,0.70
2019-01-30T05:28:31.161Z,0.70
2019-01-30T05:31:22.018Z,0.80
2019-01-30T05:34:12.838Z,0.80
2019-01-30T05:37:03.039Z,0.80
2019-01-30T05:39:53.347Z,0.80
2019-01-30T05:42:43.546Z,0.70
2019-01-30T05:45:33.699Z,0.80
2019-01-30T05:48:24.054Z,0.80
2019-01-30T05:51:14.400Z,0.80
2019-01-30T05:54:04.967Z,0.80
2019-01-30T05:56:55.254Z,0.80
2019-01-30T05:59:45.559Z,0.80
2019-01-30T06:02:35.950Z,0.80
2019-01-30T06:05:26.169Z,0.80
2019-01-30T06:08:16.494Z,0.70
2019-01-30T06:11:07.242Z,0.70
2019-01-30T06:13:57.493Z,0.80
2019-01-30T06:16:47.454Z,0.80
2019-01-30T06:19:38.599Z,0.80
2019-01-30T06:22:28.590Z,0.80
2019-01-30T06:25:18.676Z,0.80
2019-01-30T06:28:08.958Z,0.80
2019-01-30T06:30:58.993Z,0.80
2019-01-30T06:33:48.938Z,0.80
2019-01-30T06:36:39.266Z,0.70
2019-01-30T06:39:29.569Z,0.70
2019-01-30T06:42:19.765Z,0.70
2019-01-30T06:45:09.841Z,0.70
2019-01-30T06:47:59.942Z,0.70
2019-01-30T06:50:50.142Z,0.70
2019-01-30T06:53:40.337Z,0.70
2019-01-30T06:56:30.354Z,0.70
2019-01-30T06:59:20.257Z,0.70
2019-01-30T07:02:10.650Z,0.70
2019-01-30T07:05:00.955Z,0.70
2019-01-30T07:07:51.301Z,0.70
2019-01-30T07:10:41.441Z,0.70
2019-01-30T07:13:31.474Z,0.60
2019-01-30T07:16:22.090Z,0.60
2019-01-30T07:19:12.574Z,0.60
2019-01-30T07:22:02.862Z,0.60
2019-01-30T07:24:53.197Z,0.60
2019-01-30T07:27:43.521Z,0.60
2019-01-30T07:30:35.441Z,0.60
2019-01-30T07:33:25.809Z,0.60
2019-01-30T07:36:16.505Z,0.60
2019-01-30T07:39:09.844Z,0.60
2019-01-30T07:41:59.943Z,0.70
2019-01-30T07:44:51.118Z,0.70
2019-01-30T07:47:41.183Z,0.70
2019-01-30T07:50:31.954Z,0.70
2019-01-30T07:53:21.922Z,0.80
2019-01-30T07:56:12.306Z,0.80
2019-01-30T07:59:02.759Z,0.80
2019-01-30T08:01:52.946Z,0.80
2019-01-30T08:04:43.185Z,0.90
2019-01-30T08:07:33.413Z,0.90
2019-01-30T08:10:23.720Z,0.90
2019-01-30T08:13:13.735Z,1.00
2019-01-30T08:16:04.074Z,1.10
2019-01-30T08:18:54.469Z,1.10
2019-01-30T08:21:44.493Z,1.20
2019-01-30T08:24:34.797Z,1.20
2019-01-30T08:27:25.217Z,1.20
2019-01-30T08:30:26.802Z,1.30
2019-01-30T08:33:17.621Z,1.30
2019-01-30T08:36:07.521Z,1.30
2019-01-30T08:38:57.822Z,1.30
2019-01-30T08:41:48.126Z,1.30
2019-01-30T08:44:46.851Z,1.40
2019-01-30T08:47:30.050Z,1.40
2019-01-30T08:50:20.511Z,1.40
2019-01-30T08:53:10.734Z,1.50
2019-01-30T08:56:00.945Z,1.50
2019-01-30T08:58:51.102Z,1.50
2019-01-30T09:01:41.474Z,1.60
2019-01-30T09:04:31.571Z,1.60
2019-01-30T09:07:21.897Z,1.60
2019-01-30T09:10:15.247Z,1.60
2019-01-30T09:13:05.478Z,1.70
2019-01-30T09:15:55.746Z,1.80
2019-01-30T09:18:46.063Z,1.80
2019-01-30T09:21:36.510Z,1.90
2019-01-30T09:24:26.742Z,2.00
2019-01-30T09:27:16.666Z,2.00
2019-01-30T09:30:11.194Z,2.20
2019-01-30T09:33:01.619Z,2.20
2019-01-30T09:35:51.617Z,2.30
2019-01-30T09:38:41.789Z,2.40
2019-01-30T09:41:31.795Z,2.40
2019-01-30T09:44:22.133Z,2.50
2019-01-30T09:47:12.607Z,2.50
2019-01-30T09:50:02.795Z,2.60
2019-01-30T09:52:54.446Z,2.60
2019-01-30T09:55:44.688Z,2.70
2019-01-30T09:58:35.547Z,2.80
2019-01-30T10:01:25.863Z,2.80
2019-01-30T10:04:16.078Z,2.90
2019-01-30T10:07:06.358Z,3.10
2019-01-30T10:09:56.604Z,3.20
2019-01-30T10:12:46.903Z,3.30
2019-01-30T10:15:42.429Z,3.40
2019-01-30T10:18:34.142Z,3.50
2019-01-30T10:21:24.230Z,3.60
2019-01-30T10:24:14.643Z,3.70
2019-01-30T10:27:05.006Z,3.80
2019-01-30T10:29:55.250Z,3.90
2019-01-30T10:32:45.506Z,4.00
2019-01-30T10:35:35.579Z,4.10
2019-01-30T10:38:26.370Z,4.30
2019-01-30T10:41:16.985Z,4.30
2019-01-30T10:44:07.186Z,4.40
2019-01-30T10:46:57.806Z,4.40
2019-01-30T10:49:47.674Z,4.40
2019-01-30T10:52:38.066Z,4.50
2019-01-30T10:55:30.359Z,4.50
2019-01-30T10:58:20.577Z,4.60
2019-01-30T11:01:10.890Z,4.60
2019-01-30T11:04:00.986Z,4.70
2019-01-30T11:06:50.995Z,4.70
2019-01-30T11:09:41.402Z,4.70
2019-01-30T11:12:31.970Z,4.70
2019-01-30T11:15:23.874Z,4.80
2019-01-30T11:18:15.650Z,4.90
2019-01-30T11:21:06.254Z,4.90
2019-01-30T11:23:56.266Z,4.90
2019-01-30T11:26:46.581Z,5.00
2019-01-30T11:29:36.482Z,5.00
2019-01-30T11:32:26.849Z,5.10
2019-01-30T11:35:17.278Z,5.10
2019-01-30T11:38:09.047Z,5.20
2019-01-30T11:41:00.872Z,5.30
2019-01-30T11:43:51.534Z,5.50
2019-01-30T11:46:42.173Z,5.80
2019-01-30T11:49:34.172Z,6.00
2019-01-30T11:52:24.174Z,6.20
2019-01-30T11:55:15.106Z,6.20
2019-01-30T11:58:06.162Z,6.10
2019-01-30T12:01:05.562Z,6.00
2019-01-30T12:03:55.846Z,6.00
2019-01-30T12:06:46.023Z,5.90
2019-01-30T12:09:36.396Z,5.90
2019-01-30T12:12:27.628Z,5.90
2019-01-30T12:15:19.494Z,6.00
2019-01-30T12:18:09.564Z,6.10
2019-01-30T12:20:59.692Z,6.30
2019-01-30T12:23:50.200Z,6.40
2019-01-30T12:26:40.490Z,6.60
2019-01-30T12:29:31.277Z,6.70
2019-01-30T12:32:21.449Z,6.90
2019-01-30T12:35:11.594Z,6.90
2019-01-30T12:38:01.562Z,6.90
2019-01-30T12:40:51.582Z,7.00
2019-01-30T12:43:41.609Z,7.30
2019-01-30T12:46:32.018Z,7.60
2019-01-30T12:49:22.494Z,8.00
2019-01-30T12:52:12.451Z,8.40
2019-01-30T12:55:02.478Z,8.80
2019-01-30T12:57:53.373Z,9.10
2019-01-30T13:00:43.434Z,9.10
2019-01-30T13:03:33.694Z,9.30
2019-01-30T13:06:24.097Z,9.40
2019-01-30T13:09:14.511Z,9.60
2019-01-30T13:12:04.718Z,10.20
2019-01-30T13:14:55.113Z,10.20
2019-01-30T13:17:47.279Z,10.40
2019-01-30T13:20:37.602Z,10.70
2019-01-30T13:23:27.825Z,11.00
2019-01-30T13:26:17.777Z,11.50
2019-01-30T13:29:07.973Z,12.10
2019-01-30T13:31:58.395Z,12.60
2019-01-30T13:34:49.209Z,12.90
2019-01-30T13:37:39.328Z,13.00
2019-01-30T13:40:32.125Z,13.40
2019-01-30T13:43:22.655Z,14.20
2019-01-30T13:46:12.995Z,15.10
2019-01-30T13:49:03.920Z,15.60
2019-01-30T13:51:54.712Z,14.80
2019-01-30T13:54:44.801Z,13.50
2019-01-30T13:57:35.239Z,12.70
2019-01-30T14:00:31.134Z,13.30
2019-01-30T14:03:21.178Z,14.30
2019-01-30T14:06:12.282Z,15.10
2019-01-30T14:09:03.196Z,15.10
2019-01-30T14:11:53.837Z,14.60
2019-01-30T14:14:43.786Z,14.00
2019-01-30T14:17:33.970Z,13.40
2019-01-30T14:20:24.307Z,12.60
2019-01-30T14:23:14.638Z,11.50
2019-01-30T14:26:05.038Z,10.80
2019-01-30T14:28:56.321Z,10.50
2019-01-30T14:31:46.582Z,10.00
2019-01-30T14:34:36.642Z,9.20
2019-01-30T14:37:27.102Z,8.80
2019-01-30T14:40:18.405Z,8.60
2019-01-30T14:43:09.313Z,9.40
2019-01-30T14:45:59.689Z,10.60
2019-01-30T14:48:49.777Z,11.20
2019-01-30T14:51:40.005Z,11.00
2019-01-30T14:54:30.353Z,10.40
2019-01-30T14:57:20.616Z,10.60
2019-01-30T15:00:20.521Z,10.10
2019-01-30T15:03:10.556Z,9.70
2019-01-30T15:06:01.344Z,10.20
2019-01-30T15:08:51.460Z,10.80
2019-01-30T15:11:41.734Z,11.10
2019-01-30T15:14:31.969Z,11.20
2019-01-30T15:17:22.779Z,11.10
2019-01-30T15:20:16.049Z,10.20
2019-01-30T15:23:08.650Z,8.80
2019-01-30T15:25:58.581Z,8.10
2019-01-30T15:28:48.749Z,8.60
2019-01-30T15:31:39.014Z,9.20
2019-01-30T15:34:29.223Z,9.20
2019-01-30T15:37:19.567Z,9.00
2019-01-30T15:40:11.397Z,8.30
2019-01-30T15:43:01.595Z,7.60
2019-01-30T15:45:51.991Z,7.60
2019-01-30T15:48:42.389Z,7.90
2019-01-30T15:51:33.170Z,7.80
2019-01-30T15:54:23.997Z,7.50
2019-01-30T15:57:13.912Z,6.60
2019-01-30T16:00:05.113Z,5.80
2019-01-30T16:02:55.162Z,5.10
2019-01-30T16:05:45.945Z,4.50
2019-01-30T16:08:36.476Z,3.90
2019-01-30T16:11:26.490Z,3.50
2019-01-30T16:14:17.251Z,3.10
2019-01-30T16:17:07.579Z,2.80
2019-01-30T16:19:57.570Z,2.50
2019-01-30T16:22:47.742Z,2.30
2019-01-30T16:25:37.809Z,2.10
2019-01-30T16:28:28.401Z,1.90
2019-01-30T16:31:18.454Z,1.80
2019-01-30T16:34:08.503Z,1.70
2019-01-30T16:37:00.007Z,1.60
2019-01-30T16:39:50.186Z,1.40
2019-01-30T16:42:40.522Z,1.30
2019-01-30T16:45:30.924Z,1.20
2019-01-30T16:48:21.186Z,1.20
2019-01-30T16:51:12.749Z,1.20
2019-01-30T16:54:03.031Z,1.10
2019-01-30T16:56:53.380Z,1.00
2019-01-30T16:59:43.622Z,0.90
2019-01-30T17:02:34.018Z,0.80
2019-01-30T17:05:24.312Z,0.70
2019-01-30T17:08:14.542Z,0.60
2019-01-30T17:11:05.634Z,0.50
2019-01-30T17:13:56.079Z,0.40
2019-01-30T17:16:46.048Z,0.30
2019-01-30T17:19:36.822Z,0.20
2019-01-30T17:22:27.106Z,0.20
2019-01-30T17:25:17.693Z,0.10
2019-01-30T17:28:08.009Z,0.00
2019-01-30T17:31:08.161Z,-0.10
2019-01-30T17:33:58.555Z,-0.20
2019-01-30T17:36:48.568Z,-0.20
2019-01-30T17:39:39.888Z,-0.30
2019-01-30T17:42:30.198Z,-0.30
2019-01-30T17:45:20.518Z,-0.30
2019-01-30T17:48:11.937Z,-0.30
2019-01-30T17:51:02.106Z,-0.30
2019-01-30T17:53:52.301Z,-0.40
2019-01-30T17:56:42.833Z,-0.40
2019-01-30T17:59:33.162Z,-0.50
2019-01-30T18:02:23.634Z,-0.60
2019-01-30T18:05:14.017Z,-0.70
2019-01-30T18:08:04.305Z,-0.80
2019-01-30T18:10:54.618Z,-0.80
2019-01-30T18:13:45.178Z,-0.80
2019-01-30T18:16:35.723Z,-0.80
2019-01-30T18:19:25.937Z,-0.80
2019-01-30T18:22:16.012Z,-0.80
2019-01-30T18:25:07.633Z,-0.90
2019-01-30T18:27:57.846Z,-0.90
2019-01-30T18:30:48.045Z,-0.90
2019-01-30T18:33:38.441Z,-0.90
2019-01-30T18:36:29.046Z,-0.90
2019-01-30T18:39:19.605Z,-1.00
2019-01-30T18:42:09.826Z,-1.10
2019-01-30T18:45:00.307Z,-1.10
2019-01-30T18:47:50.538Z,-1.20
2019-01-30T18:50:40.627Z,-1.10
2019-01-30T18:53:30.551Z,-1.10
2019-01-30T18:56:20.871Z,-1.20
2019-01-30T18:59:11.010Z,-1.10
2019-01-30T19:02:01.491Z,-1.10
2019-01-30T19:04:52.034Z,-1.10
2019-01-30T19:07:42.046Z,-1.10
2019-01-30T19:10:32.023Z,-1.10
2019-01-30T19:13:22.062Z,-1.10
2019-01-30T19:16:12.181Z,-1.10
2019-01-30T19:19:03.007Z,-1.20
2019-01-30T19:21:53.350Z,-1.20
2019-01-30T19:24:43.659Z,-1.20
2019-01-30T19:27:33.899Z,-1.20
2019-01-30T19:30:26.226Z,-1.20
2019-01-30T19:33:16.758Z,-1.20
2019-01-30T19:36:07.126Z,-1.20
2019-01-30T19:38:57.434Z,-1.20
2019-01-30T19:41:50.240Z,-1.20
2019-01-30T19:44:40.218Z,-1.30
2019-01-30T19:47:30.584Z,-1.30
2019-01-30T19:50:25.942Z,-1.30
2019-01-30T19:53:16.270Z,-1.30
2019-01-30T19:56:06.378Z,-1.30
2019-01-30T19:58:57.234Z,-1.40
2019-01-30T20:01:47.290Z,-1.40
2019-01-30T20:04:37.285Z,-1.50
2019-01-30T20:07:27.506Z,-1.50
2019-01-30T20:10:20.556Z,-1.60
2019-01-30T20:13:11.038Z,-1.60
2019-01-30T20:16:01.254Z,-1.60
2019-01-30T20:18:52.446Z,-1.60
2019-01-30T20:21:42.745Z,-1.60
2019-01-30T20:24:33.224Z,-1.70
2019-01-30T20:27:23.266Z,-1.70
2019-01-30T20:30:16.290Z,-1.70
2019-01-30T20:33:06.961Z,-1.70
2019-01-30T20:35:57.013Z,-1.70
2019-01-30T20:38:47.114Z,-1.80
2019-01-30T20:41:37.586Z,-1.80
2019-01-30T20:44:27.934Z,-1.80
2019-01-30T20:47:18.230Z,-1.90
2019-01-30T20:50:11.686Z,-1.90
2019-01-30T20:53:01.747Z,-1.90
2019-01-30T20:55:51.826Z,-1.90
2019-01-30T20:58:42.491Z,-2.00
2019-01-30T21:01:34.130Z,-2.10
2019-01-30T21:04:24.322Z,-2.10
2019-01-30T21:07:14.350Z,-2.10
2019-01-30T21:10:05.641Z,-2.10
2019-01-30T21:12:55.619Z,-2.20
2019-01-30T21:15:45.797Z,-2.20
2019-01-30T21:18:36.082Z,-2.30
2019-01-30T21:21:26.095Z,-2.30
2019-01-30T21:24:16.698Z,-2.40
2019-01-30T21:27:07.098Z,-2.40
2019-01-30T21:29:57.262Z,-2.40
2019-01-30T21:32:47.986Z,-2.40
2019-01-30T21:35:38.442Z,-2.50
2019-01-30T21:38:28.694Z,-2.50
2019-01-30T21:41:18.843Z,-2.50
2019-01-30T21:44:09.557Z,-2.50
2019-01-30T21:47:01.438Z,-2.50
2019-01-30T21:49:51.186Z,-2.50
2019-01-30T21:52:41.580Z,-2.50
2019-01-30T21:55:31.613Z,-2.60
2019-01-30T21:58:21.878Z,-2.60
2019-01-30T22:01:12.014Z,-2.70
2019-01-30T22:04:02.571Z,-2.70
2019-01-30T22:06:52.853Z,-2.70
2019-01-30T22:09:43.201Z,-2.70
2019-01-30T22:12:33.546Z,-2.60
2019-01-30T22:15:23.601Z,-2.60
2019-01-30T22:18:13.937Z,-2.70
2019-01-30T22:21:03.950Z,-2.80
2019-01-30T22:24:04.998Z,-2.90
2019-01-30T22:26:45.715Z,-3.00
2019-01-30T22:29:35.961Z,-3.10
2019-01-30T22:32:26.438Z,-3.10
2019-01-30T22:35:16.635Z,-3.20
2019-01-30T22:38:12.617Z,-3.30
2019-01-30T22:40:59.369Z,-3.40
2019-01-30T22:43:49.881Z,-3.60
2019-01-30T22:46:40.147Z,-3.50
2019-01-30T22:49:30.450Z,-3.50
2019-01-30T22:52:20.778Z,-3.60
2019-01-30T22:55:13.249Z,-3.70
2019-01-30T22:58:03.525Z,-3.70
2019-01-30T23:01:25.682Z,-3.60
2019-01-30T23:04:50.103Z,-3.60
2019-01-30T23:08:08.553Z,-3.50
2019-01-30T23:11:33.635Z,-3.50
2019-01-30T23:14:36.638Z,-3.40
2019-01-30T23:17:57.340Z,-3.40
2019-01-30T23:20:54.913Z,-3.40
2019-01-30T23:24:14.454Z,-3.30
2019-01-30T23:27:26.690Z,-3.30
2019-01-30T23:30:56.162Z,-3.30
2019-01-30T23:34:15.902Z,-3.30
2019-01-30T23:37:41.425Z,-3.30
2019-01-30T23:40:52.746Z,-3.40
2019-01-30T23:44:16.493Z,-3.40
2019-01-30T23:47:40.019Z,-3.40
2019-01-30T23:50:45.610Z,-3.40
2019-01-30T23:54:13.025Z,-3.50
2019-01-30T23:57:37.115Z,-3.50
